createdAt,value
2018-07-19T00:03:19.863Z,19.50
2018-07-19T00:06:00.512Z,19.40
2018-07-19T00:08:56.388Z,19.40
2018-07-19T00:11:30.111Z,19.40
2018-07-19T00:16:59.185Z,19.50
2018-07-19T00:19:59.639Z,19.50
2018-07-19T00:25:15.963Z,19.60
2018-07-19T00:28:13.194Z,19.50
2018-07-19T00:30:48.066Z,19.40
2018-07-19T00:33:26.006Z,19.20
2018-07-19T00:36:14.531Z,19.20
2018-07-19T00:38:50.498Z,19.10
2018-07-19T00:41:31.545Z,19.10
2018-07-19T00:44:16.669Z,19.00
2018-07-19T00:47:16.440Z,18.90
2018-07-19T00:52:52.491Z,18.80
2018-07-19T00:55:41.751Z,18.80
2018-07-19T01:00:55.642Z,18.60
2018-07-19T01:03:25.162Z,18.60
2018-07-19T01:05:58.927Z,18.50
2018-07-19T01:11:13.966Z,18.50
2018-07-19T01:13:53.810Z,18.40
2018-07-19T01:16:59.126Z,18.40
2018-07-19T01:19:32.097Z,18.40
2018-07-19T01:22:33.692Z,18.10
2018-07-19T01:25:09.552Z,18.20
2018-07-19T01:30:29.202Z,18.30
2018-07-19T01:33:06.152Z,18.20
2018-07-19T01:38:14.660Z,18.20
2018-07-19T01:40:53.728Z,18.20
2018-07-19T01:43:35.817Z,18.10
2018-07-19T01:46:18.177Z,18.00
2018-07-19T01:48:53.047Z,18.00
2018-07-19T01:51:32.481Z,17.90
2018-07-19T01:54:00.709Z,17.90
2018-07-19T01:56:30.660Z,17.90
2018-07-19T01:58:59.640Z,17.90
2018-07-19T02:01:28.462Z,17.60
2018-07-19T02:03:57.165Z,17.40
2018-07-19T02:06:25.627Z,17.30
2018-07-19T02:08:53.838Z,17.30
2018-07-19T02:11:22.079Z,17.30
2018-07-19T02:13:50.273Z,17.30
2018-07-19T02:16:18.493Z,17.40
2018-07-19T02:18:46.744Z,17.50
2018-07-19T02:21:14.957Z,17.60
2018-07-19T02:23:43.169Z,17.60
2018-07-19T02:26:11.396Z,17.60
2018-07-19T02:28:39.611Z,17.70
2018-07-19T02:31:07.885Z,17.70
2018-07-19T02:33:36.122Z,17.60
2018-07-19T02:36:04.354Z,17.70
2018-07-19T02:38:32.581Z,17.70
2018-07-19T02:41:00.787Z,17.70
2018-07-19T02:43:29.015Z,17.50
2018-07-19T02:45:57.221Z,17.50
2018-07-19T02:48:25.429Z,17.40
2018-07-19T02:50:53.631Z,17.40
2018-07-19T02:53:21.838Z,17.40
2018-07-19T02:55:50.043Z,17.50
2018-07-19T02:58:18.269Z,17.40
2018-07-19T03:00:46.487Z,17.40
2018-07-19T03:03:14.723Z,17.40
2018-07-19T03:05:42.948Z,17.30
2018-07-19T03:08:11.150Z,17.30
2018-07-19T03:10:39.309Z,17.30
2018-07-19T03:13:07.462Z,17.30
2018-07-19T03:15:35.635Z,17.30
2018-07-19T03:18:03.807Z,17.10
2018-07-19T03:20:31.978Z,16.90
2018-07-19T03:23:00.144Z,16.90
2018-07-19T03:25:28.294Z,16.90
2018-07-19T03:27:56.482Z,16.90
2018-07-19T03:30:24.652Z,17.00
2018-07-19T03:32:52.809Z,16.90
2018-07-19T03:35:20.977Z,16.90
2018-07-19T03:37:49.199Z,16.90
2018-07-19T03:40:17.361Z,16.90
2018-07-19T03:42:45.545Z,16.70
2018-07-19T03:45:13.718Z,16.60
2018-07-19T03:47:41.898Z,16.50
2018-07-19T03:50:10.053Z,16.60
2018-07-19T03:52:38.251Z,16.70
2018-07-19T03:55:06.424Z,16.80
2018-07-19T03:57:34.578Z,16.90
2018-07-19T04:00:02.744Z,16.90
2018-07-19T04:02:30.926Z,16.90
2018-07-19T04:04:59.085Z,16.90
2018-07-19T04:07:27.242Z,16.90
2018-07-19T04:09:55.718Z,16.80
2018-07-19T04:12:23.938Z,16.80
2018-07-19T04:14:52.321Z,16.90
2018-07-19T04:17:20.529Z,16.90
2018-07-19T04:19:48.842Z,17.00
2018-07-19T04:22:17.052Z,17.00
2018-07-19T04:24:45.589Z,17.10
2018-07-19T04:27:13.865Z,17.10
2018-07-19T04:29:42.122Z,17.10
2018-07-19T04:32:10.325Z,17.00
2018-07-19T04:34:38.518Z,17.00
2018-07-19T04:37:06.735Z,16.90
2018-07-19T04:39:34.942Z,16.90
2018-07-19T04:42:03.181Z,16.90
2018-07-19T04:44:31.437Z,16.90
2018-07-19T04:47:00.451Z,17.10
2018-07-19T04:49:30.963Z,17.30
2018-07-19T04:51:59.649Z,17.30
2018-07-19T04:54:27.904Z,17.40
2018-07-19T04:56:56.077Z,17.30
2018-07-19T04:59:24.387Z,17.30
2018-07-19T05:01:52.709Z,17.30
2018-07-19T05:04:20.810Z,17.20
2018-07-19T05:06:49.024Z,17.20
2018-07-19T05:09:17.286Z,17.20
2018-07-19T05:11:45.445Z,17.30
2018-07-19T05:14:13.608Z,17.40
2018-07-19T05:16:41.786Z,18.00
2018-07-19T05:19:09.930Z,17.90
2018-07-19T05:21:38.137Z,18.10
2018-07-19T05:24:06.458Z,18.10
2018-07-19T05:26:34.635Z,18.60
2018-07-19T05:29:02.781Z,18.60
2018-07-19T05:31:30.947Z,19.00
2018-07-19T05:33:59.089Z,19.20
2018-07-19T05:36:27.270Z,19.30
2018-07-19T05:38:55.905Z,19.50
2018-07-19T05:41:24.095Z,19.80
2018-07-19T05:43:52.251Z,20.00
2018-07-19T05:46:20.447Z,20.10
2018-07-19T05:48:48.624Z,20.20
2018-07-19T05:51:16.781Z,20.40
2018-07-19T05:53:44.938Z,20.40
2018-07-19T05:56:13.078Z,20.60
2018-07-19T05:58:41.254Z,20.90
2018-07-19T06:01:09.418Z,21.10
2018-07-19T06:03:37.568Z,21.20
2018-07-19T06:06:05.720Z,21.30
2018-07-19T06:08:33.906Z,21.50
2018-07-19T06:11:02.142Z,21.70
2018-07-19T06:13:30.370Z,22.00
2018-07-19T06:15:58.625Z,22.10
2018-07-19T06:18:26.812Z,22.20
2018-07-19T06:20:55.018Z,22.30
2018-07-19T06:23:23.246Z,22.10
2018-07-19T06:25:51.446Z,22.60
2018-07-19T06:30:47.627Z,22.00
2018-07-19T06:33:15.858Z,22.00
2018-07-19T06:35:44.070Z,22.10
2018-07-19T06:38:12.279Z,22.20
2018-07-19T06:40:40.515Z,22.40
2018-07-19T06:43:08.739Z,22.50
2018-07-19T06:45:36.966Z,22.80
2018-07-19T06:48:05.207Z,22.90
2018-07-19T06:50:33.429Z,23.10
2018-07-19T06:53:02.026Z,23.40
2018-07-19T06:55:30.225Z,23.50
2018-07-19T06:57:58.437Z,23.70
2018-07-19T07:00:26.653Z,23.90
2018-07-19T07:02:54.883Z,24.00
2018-07-19T07:05:23.098Z,24.20
2018-07-19T07:07:51.332Z,24.30
2018-07-19T07:10:19.485Z,24.50
2018-07-19T07:12:47.668Z,24.70
2018-07-19T07:15:15.820Z,24.70
2018-07-19T07:17:44.012Z,24.90
2018-07-19T07:20:12.317Z,24.80
2018-07-19T07:22:40.507Z,25.10
2018-07-19T07:25:08.688Z,25.10
2018-07-19T07:27:36.900Z,25.30
2018-07-19T07:30:05.613Z,25.30
2018-07-19T07:32:33.773Z,25.60
2018-07-19T07:35:01.949Z,25.70
2018-07-19T07:37:30.141Z,25.80
2018-07-19T07:39:58.309Z,25.70
2018-07-19T07:44:54.398Z,25.90
2018-07-19T07:47:22.641Z,26.10
2018-07-19T07:49:50.799Z,26.20
2018-07-19T07:52:19.157Z,26.30
2018-07-19T07:54:47.353Z,26.40
2018-07-19T07:57:15.510Z,26.50
2018-07-19T07:59:43.673Z,26.60
2018-07-19T08:02:11.829Z,26.90
2018-07-19T08:04:40.163Z,26.80
2018-07-19T08:07:08.314Z,26.90
2018-07-19T08:09:36.530Z,27.10
2018-07-19T08:12:04.766Z,27.10
2018-07-19T08:14:33.250Z,27.30
2018-07-19T08:17:01.477Z,27.40
2018-07-19T08:19:29.673Z,27.60
2018-07-19T08:21:57.894Z,27.90
2018-07-19T08:24:26.086Z,27.80
2018-07-19T08:26:54.297Z,27.90
2018-07-19T08:29:22.520Z,27.80
2018-07-19T08:31:50.905Z,27.80
2018-07-19T08:34:19.101Z,27.90
2018-07-19T08:36:47.307Z,27.90
2018-07-19T08:39:15.533Z,28.00
2018-07-19T08:41:44.839Z,28.00
2018-07-19T08:44:13.055Z,28.00
2018-07-19T08:46:41.274Z,28.20
2018-07-19T08:49:09.540Z,28.00
2018-07-19T08:51:37.793Z,27.90
2018-07-19T08:54:05.981Z,28.10
2018-07-19T08:56:34.246Z,28.20
2018-07-19T08:59:02.446Z,28.20
2018-07-19T09:01:31.451Z,28.40
2018-07-19T09:03:59.695Z,28.30
2018-07-19T09:06:27.922Z,28.50
2018-07-19T09:08:56.103Z,28.50
2018-07-19T09:11:24.283Z,28.60
2018-07-19T09:13:52.474Z,28.80
2018-07-19T09:16:20.629Z,28.80
2018-07-19T09:18:48.795Z,28.80
2018-07-19T09:21:17.002Z,28.90
2018-07-19T09:23:45.303Z,29.40
2018-07-19T09:26:13.485Z,29.20
2018-07-19T09:28:41.642Z,29.50
2018-07-19T09:31:09.803Z,29.60
2018-07-19T09:36:06.046Z,29.70
2018-07-19T09:38:34.336Z,29.60
2018-07-19T09:41:02.415Z,29.60
2018-07-19T09:43:30.578Z,29.50
2018-07-19T09:45:58.750Z,29.60
2018-07-19T09:48:26.913Z,29.80
2018-07-19T09:50:55.088Z,29.80
2018-07-19T09:53:23.277Z,29.90
2018-07-19T09:55:51.485Z,29.80
2018-07-19T10:00:53.006Z,29.80
2018-07-19T10:03:21.158Z,30.00
2018-07-19T10:05:49.344Z,30.00
2018-07-19T10:08:17.501Z,29.90
2018-07-19T10:10:45.727Z,30.10
2018-07-19T10:13:13.940Z,30.20
2018-07-19T10:15:42.185Z,30.10
2018-07-19T10:18:10.401Z,30.00
2018-07-19T10:20:38.623Z,30.20
2018-07-19T10:23:06.961Z,30.20
2018-07-19T10:25:35.183Z,30.20
2018-07-19T10:28:03.393Z,30.30
2018-07-19T10:30:31.608Z,30.30
2018-07-19T10:32:59.827Z,30.30
2018-07-19T10:35:28.089Z,30.40
2018-07-19T10:37:56.297Z,30.30
2018-07-19T10:40:24.499Z,29.90
2018-07-19T10:42:52.721Z,29.90
2018-07-19T10:45:20.925Z,30.00
2018-07-19T10:47:49.143Z,30.10
2018-07-19T10:50:17.372Z,30.20
2018-07-19T10:52:45.603Z,30.20
2018-07-19T10:55:13.793Z,30.30
2018-07-19T10:57:42.016Z,30.40
2018-07-19T11:02:38.243Z,30.50
2018-07-19T11:05:06.418Z,30.50
2018-07-19T11:07:34.651Z,30.40
2018-07-19T11:10:02.837Z,30.40
2018-07-19T11:12:30.972Z,30.40
2018-07-19T11:14:59.478Z,30.50
2018-07-19T11:17:27.619Z,30.50
2018-07-19T11:19:55.779Z,30.50
2018-07-19T11:22:23.957Z,30.40
2018-07-19T11:27:20.028Z,30.60
2018-07-19T11:29:48.183Z,30.70
2018-07-19T11:32:16.513Z,30.70
2018-07-19T11:34:44.750Z,30.70
2018-07-19T11:37:12.923Z,30.60
2018-07-19T11:39:41.106Z,30.60
2018-07-19T11:42:09.344Z,30.70
2018-07-19T11:44:37.489Z,30.60
2018-07-19T11:47:05.662Z,30.60
2018-07-19T11:49:33.836Z,30.60
2018-07-19T11:52:02.006Z,30.40
2018-07-19T11:54:30.258Z,30.50
2018-07-19T11:56:58.481Z,30.50
2018-07-19T11:59:26.648Z,30.40
2018-07-19T12:01:54.807Z,30.40
2018-07-19T12:04:22.982Z,30.40
2018-07-19T12:06:51.153Z,30.20
2018-07-19T12:09:19.491Z,30.50
2018-07-19T12:11:48.082Z,30.50
2018-07-19T12:14:16.278Z,30.60
2018-07-19T12:16:44.501Z,30.40
2018-07-19T12:19:12.703Z,30.30
2018-07-19T12:21:41.015Z,30.40
2018-07-19T12:24:09.250Z,30.50
2018-07-19T12:26:37.465Z,30.60
2018-07-19T12:29:05.699Z,30.50
2018-07-19T12:31:33.929Z,30.10
2018-07-19T12:34:02.143Z,30.10
2018-07-19T12:36:30.371Z,31.20
2018-07-19T12:38:58.579Z,30.30
2018-07-19T12:41:26.817Z,30.20
2018-07-19T12:43:55.022Z,30.20
2018-07-19T12:46:23.676Z,30.20
2018-07-19T12:48:51.924Z,30.20
2018-07-19T12:51:20.151Z,30.40
2018-07-19T12:53:48.358Z,30.30
2018-07-19T12:56:16.558Z,30.30
2018-07-19T12:58:44.783Z,30.30
2018-07-19T13:01:13.037Z,30.40
2018-07-19T13:03:41.261Z,30.40
2018-07-19T13:06:09.465Z,30.40
2018-07-19T13:08:37.675Z,30.40
2018-07-19T13:11:05.889Z,30.40
2018-07-19T13:13:34.091Z,30.50
2018-07-19T13:16:02.295Z,30.50
2018-07-19T13:18:30.519Z,30.30
2018-07-19T13:20:58.738Z,30.40
2018-07-19T13:23:26.925Z,30.30
2018-07-19T13:25:55.134Z,30.20
2018-07-19T13:28:23.348Z,30.10
2018-07-19T13:30:51.584Z,30.10
2018-07-19T13:33:19.906Z,30.10
2018-07-19T13:35:48.768Z,30.20
2018-07-19T13:38:17.002Z,30.20
2018-07-19T13:40:45.204Z,30.20
2018-07-19T13:43:13.421Z,30.20
2018-07-19T13:45:41.628Z,30.20
2018-07-19T13:48:09.846Z,30.20
2018-07-19T13:50:38.138Z,30.20
2018-07-19T13:53:51.689Z,30.00
2018-07-19T13:56:19.992Z,30.00
2018-07-19T13:58:48.194Z,30.00
2018-07-19T14:01:16.406Z,30.10
2018-07-19T14:03:44.620Z,30.10
2018-07-19T14:06:12.847Z,29.90
2018-07-19T14:08:41.065Z,29.80
2018-07-19T14:11:09.219Z,29.60
2018-07-19T14:13:37.383Z,29.70
2018-07-19T14:16:05.532Z,29.80
2018-07-19T14:18:33.708Z,29.90
2018-07-19T14:21:01.853Z,29.90
2018-07-19T14:23:30.025Z,29.90
2018-07-19T14:25:58.187Z,29.90
2018-07-19T14:28:26.384Z,29.90
2018-07-19T14:30:54.513Z,30.00
2018-07-19T14:33:22.683Z,30.10
2018-07-19T14:35:50.856Z,30.20
2018-07-19T14:38:19.041Z,30.00
2018-07-19T14:40:47.187Z,30.10
2018-07-19T14:43:15.349Z,30.10
2018-07-19T14:45:43.506Z,29.90
2018-07-19T14:48:11.884Z,29.90
2018-07-19T14:50:40.000Z,29.90
2018-07-19T14:53:08.170Z,29.90
2018-07-19T14:58:04.303Z,29.90
2018-07-19T15:00:32.473Z,29.90
2018-07-19T15:03:00.625Z,29.90
2018-07-19T15:05:28.797Z,29.90
2018-07-19T15:07:56.949Z,30.00
2018-07-19T15:10:25.194Z,30.00
2018-07-19T15:12:53.398Z,30.20
2018-07-19T15:15:21.610Z,30.10
2018-07-19T15:17:49.836Z,30.10
2018-07-19T15:20:18.064Z,30.00
2018-07-19T15:25:20.931Z,30.00
2018-07-19T15:27:49.148Z,30.00
2018-07-19T15:30:17.362Z,30.00
2018-07-19T15:32:45.583Z,29.90
2018-07-19T15:35:13.789Z,29.90
2018-07-19T15:37:42.006Z,29.80
2018-07-19T15:40:10.822Z,29.80
2018-07-19T15:42:39.028Z,29.90
2018-07-19T15:45:07.593Z,29.90
2018-07-19T15:50:03.842Z,30.10
2018-07-19T15:52:32.031Z,29.90
2018-07-19T15:55:00.251Z,29.80
2018-07-19T15:57:28.487Z,29.70
2018-07-19T15:59:56.736Z,29.80
2018-07-19T16:04:53.043Z,30.00
2018-07-19T16:07:21.282Z,29.90
2018-07-19T16:09:49.482Z,29.90
2018-07-19T16:12:17.711Z,29.90
2018-07-19T16:14:46.914Z,29.90
2018-07-19T16:17:15.123Z,29.90
2018-07-19T16:19:43.322Z,30.00
2018-07-19T16:22:11.547Z,30.00
2018-07-19T16:24:39.779Z,30.00
2018-07-19T16:27:07.996Z,30.00
2018-07-19T16:29:36.198Z,30.00
2018-07-19T16:32:04.427Z,30.00
2018-07-19T16:34:32.695Z,30.00
2018-07-19T16:37:00.854Z,30.00
2018-07-19T16:39:29.047Z,30.00
2018-07-19T16:41:57.250Z,30.00
2018-07-19T16:44:25.460Z,29.90
2018-07-19T16:46:53.734Z,29.90
2018-07-19T16:49:21.946Z,29.80
2018-07-19T16:51:50.159Z,29.90
2018-07-19T16:54:18.468Z,29.90
2018-07-19T16:56:46.693Z,29.70
2018-07-19T16:59:14.920Z,29.80
2018-07-19T17:01:43.174Z,29.60
2018-07-19T17:04:11.395Z,29.60
2018-07-19T17:06:39.603Z,29.70
2018-07-19T17:09:09.172Z,29.60
2018-07-19T17:14:05.559Z,29.60
2018-07-19T17:16:33.757Z,29.60
2018-07-19T17:19:01.915Z,29.50
2018-07-19T17:21:30.066Z,29.60
2018-07-19T17:23:58.238Z,29.60
2018-07-19T17:26:26.411Z,29.60
2018-07-19T17:28:54.623Z,29.60
2018-07-19T17:31:23.052Z,29.60
2018-07-19T17:33:51.242Z,29.50
2018-07-19T17:36:19.403Z,29.40
2018-07-19T17:38:47.650Z,29.40
2018-07-19T17:41:15.866Z,29.40
2018-07-19T17:43:44.012Z,29.40
2018-07-19T17:46:12.273Z,29.30
2018-07-19T17:48:40.428Z,29.20
2018-07-19T17:51:08.599Z,29.20
2018-07-19T17:53:36.755Z,29.10
2018-07-19T17:56:04.905Z,29.10
2018-07-19T17:58:33.078Z,29.00
2018-07-19T18:01:01.241Z,29.10
2018-07-19T18:03:29.403Z,29.00
2018-07-19T18:05:57.566Z,28.80
2018-07-19T18:10:53.741Z,28.80
2018-07-19T18:13:23.205Z,28.80
2018-07-19T18:15:51.406Z,28.70
2018-07-19T18:18:19.880Z,28.70
2018-07-19T18:20:48.096Z,28.60
2018-07-19T18:23:16.299Z,28.70
2018-07-19T18:25:44.497Z,28.70
2018-07-19T18:28:12.707Z,28.60
2018-07-19T18:30:41.020Z,28.60
2018-07-19T18:33:09.867Z,28.50
2018-07-19T18:35:38.078Z,28.50
2018-07-19T18:38:06.894Z,28.50
2018-07-19T18:40:35.364Z,28.50
2018-07-19T18:43:03.611Z,28.40
2018-07-19T18:45:31.857Z,28.30
2018-07-19T18:48:00.131Z,28.30
2018-07-19T18:50:28.331Z,28.20
2018-07-19T18:52:56.540Z,28.20
2018-07-19T18:55:24.758Z,28.10
2018-07-19T18:57:53.053Z,28.00
2018-07-19T19:00:21.331Z,28.00
2018-07-19T19:02:49.617Z,27.40
2018-07-19T19:05:18.107Z,27.30
2018-07-19T19:07:46.665Z,27.30
2018-07-19T19:10:14.929Z,27.20
2018-07-19T19:12:43.227Z,27.10
2018-07-19T19:15:11.422Z,27.00
2018-07-19T19:17:39.738Z,26.80
2018-07-19T19:20:08.044Z,26.60
2018-07-19T19:22:36.385Z,26.50
2018-07-19T19:25:04.774Z,26.30
2018-07-19T19:27:33.009Z,26.00
2018-07-19T19:30:01.344Z,25.90
2018-07-19T19:32:29.636Z,25.70
2018-07-19T19:34:57.969Z,25.60
2018-07-19T19:37:26.323Z,25.50
2018-07-19T19:41:23.787Z,25.40
2018-07-19T19:43:52.088Z,25.20
2018-07-19T19:46:20.414Z,25.00
2018-07-19T19:48:48.697Z,25.00
2018-07-19T19:51:17.019Z,24.90
2018-07-19T19:53:45.513Z,24.80
2018-07-19T19:56:13.808Z,24.60
2018-07-19T19:58:42.194Z,24.60
2018-07-19T20:01:10.333Z,24.50
2018-07-19T20:03:38.586Z,24.40
2018-07-19T20:06:06.867Z,24.40
2018-07-19T20:08:35.184Z,24.20
2018-07-19T20:11:03.395Z,24.00
2018-07-19T20:13:31.701Z,24.00
2018-07-19T20:15:59.948Z,23.90
2018-07-19T20:18:28.183Z,23.90
2018-07-19T20:20:56.406Z,23.70
2018-07-19T20:23:24.636Z,23.60
2018-07-19T20:25:52.856Z,23.60
2018-07-19T20:28:21.063Z,23.70
2018-07-19T20:30:49.315Z,23.60
2018-07-19T20:33:17.623Z,23.60
2018-07-19T20:35:46.341Z,23.50
2018-07-19T20:38:14.759Z,23.40
2018-07-19T20:40:43.038Z,23.40
2018-07-19T20:45:39.388Z,23.40
2018-07-19T20:48:07.733Z,23.30
2018-07-19T20:50:36.022Z,23.10
2018-07-19T20:53:04.405Z,23.20
2018-07-19T20:55:32.665Z,23.10
2018-07-19T20:58:00.877Z,23.10
2018-07-19T21:00:29.098Z,23.00
2018-07-19T21:02:57.304Z,22.90
2018-07-19T21:05:25.532Z,22.90
2018-07-19T21:07:53.780Z,22.90
2018-07-19T21:10:22.000Z,22.80
2018-07-19T21:12:50.457Z,22.60
2018-07-19T21:15:18.818Z,22.50
2018-07-19T21:17:47.299Z,22.40
2018-07-19T21:20:15.670Z,22.30
2018-07-19T21:22:43.941Z,22.20
2018-07-19T21:25:12.213Z,22.20
2018-07-19T21:27:40.491Z,22.20
2018-07-19T21:30:08.913Z,22.00
2018-07-19T21:32:37.203Z,22.50
2018-07-19T21:35:05.684Z,21.60
2018-07-19T21:37:33.895Z,21.60
2018-07-19T21:40:02.117Z,21.50
2018-07-19T21:42:30.333Z,21.50
2018-07-19T21:44:58.583Z,21.50
2018-07-19T21:47:26.794Z,21.50
2018-07-19T21:49:55.032Z,21.30
2018-07-19T21:52:23.250Z,21.30
2018-07-19T21:54:51.449Z,21.30
2018-07-19T21:57:20.014Z,21.30
2018-07-19T21:59:48.218Z,21.40
2018-07-19T22:02:16.437Z,21.40
2018-07-19T22:04:44.649Z,21.30
2018-07-19T22:07:12.902Z,21.40
2018-07-19T22:09:41.181Z,21.50
2018-07-19T22:12:09.318Z,21.60
2018-07-19T22:14:37.524Z,21.40
2018-07-19T22:17:05.804Z,21.50
2018-07-19T22:19:33.969Z,21.10
2018-07-19T22:22:15.213Z,20.90
2018-07-19T22:24:43.421Z,20.90
2018-07-19T22:27:13.373Z,20.90
2018-07-19T22:29:41.557Z,20.90
2018-07-19T22:32:09.781Z,20.70
2018-07-19T22:34:37.979Z,20.60
2018-07-19T22:37:06.278Z,20.60
2018-07-19T22:39:34.974Z,20.40
2018-07-19T22:42:04.963Z,20.40
2018-07-19T22:44:33.167Z,20.60
2018-07-19T22:47:01.394Z,20.40
2018-07-19T22:49:29.618Z,20.50
2018-07-19T22:54:29.374Z,20.30
2018-07-19T22:56:57.637Z,20.20
2018-07-19T22:59:26.348Z,20.00
2018-07-19T23:01:54.577Z,20.10
2018-07-19T23:04:22.798Z,20.20
2018-07-19T23:06:51.053Z,20.10
2018-07-19T23:09:19.208Z,20.20
2018-07-19T23:11:47.382Z,20.00
2018-07-19T23:14:15.547Z,20.00
2018-07-19T23:16:43.706Z,20.00
2018-07-19T23:19:11.883Z,20.10
2018-07-19T23:21:40.050Z,19.90
2018-07-19T23:24:08.222Z,19.90
2018-07-19T23:26:36.404Z,19.80
2018-07-19T23:29:04.559Z,19.90
2018-07-19T23:31:32.704Z,19.80
2018-07-19T23:34:00.841Z,19.80
2018-07-19T23:36:39.776Z,19.80
2018-07-19T23:39:11.226Z,19.70
2018-07-19T23:41:49.735Z,19.70
2018-07-19T23:44:24.172Z,19.60
2018-07-19T23:46:57.885Z,19.30
2018-07-19T23:49:26.043Z,19.30
2018-07-19T23:51:54.225Z,19.30
2018-07-19T23:54:22.383Z,19.20
2018-07-19T23:56:50.622Z,19.30
2018-07-19T23:59:18.770Z,19.30
